sensor_id;sensor_type;location;lat;lon;timestamp;temperature;humidity
47350;DHT22;33088;51.982;5.872;2022-10-13T00:00:32;10.20;99.90
47350;DHT22;33088;51.982;5.872;2022-10-13T00:03:01;10.30;99.90
47350;DHT22;33088;51.982;5.872;2022-10-13T00:05:28;10.30;99.90
47350;DHT22;33088;51.982;5.872;2022-10-13T00:07:55;10.30;99.90
47350;DHT22;33088;51.982;5.872;2022-10-13T00:10:21;10.30;99.90
47350;DHT22;33088;51.982;5.872;2022-10-13T00:12:46;10.30;99.90
47350;DHT22;33088;51.982;5.872;2022-10-13T00:15:13;10.20;99.90
47350;DHT22;33088;51.982;5.872;2022-10-13T00:17:39;10.20;99.90
47350;DHT22;33088;51.982;5.872;2022-10-13T00:20:07;10.20;99.90
47350;DHT22;33088;51.982;5.872;2022-10-13T00:22:34;10.20;99.90
47350;DHT22;33088;51.982;5.872;2022-10-13T00:24:59;10.20;99.90
47350;DHT22;33088;51.982;5.872;2022-10-13T00:27:25;10.20;99.90
47350;DHT22;33088;51.982;5.872;2022-10-13T00:29:51;10.20;99.90
47350;DHT22;33088;51.982;5.872;2022-10-13T00:32:17;10.20;99.90
47350;DHT22;33088;51.982;5.872;2022-10-13T00:34:43;10.30;99.90
47350;DHT22;33088;51.982;5.872;2022-10-13T00:37:08;10.30;99.90
47350;DHT22;33088;51.982;5.872;2022-10-13T00:39:36;10.30;99.90
47350;DHT22;33088;51.982;5.872;2022-10-13T00:42:01;10.30;99.90
47350;DHT22;33088;51.982;5.872;2022-10-13T00:47:37;10.40;99.90
47350;DHT22;33088;51.982;5.872;2022-10-13T00:50:05;10.40;99.90
47350;DHT22;33088;51.982;5.872;2022-10-13T00:52:32;10.50;99.90
47350;DHT22;33088;51.982;5.872;2022-10-13T00:54:58;10.50;99.90
47350;DHT22;33088;51.982;5.872;2022-10-13T00:57:25;10.50;99.90
47350;DHT22;33088;51.982;5.872;2022-10-13T00:59:51;10.50;99.90
47350;DHT22;33088;51.982;5.872;2022-10-13T01:02:16;10.50;99.90
47350;DHT22;33088;51.982;5.872;2022-10-13T01:04:45;10.50;99.90
47350;DHT22;33088;51.982;5.872;2022-10-13T01:07:15;10.50;99.90
47350;DHT22;33088;51.982;5.872;2022-10-13T01:09:43;10.50;99.90
47350;DHT22;33088;51.982;5.872;2022-10-13T01:15:10;10.50;99.90
47350;DHT22;33088;51.982;5.872;2022-10-13T01:20:36;10.60;99.90
47350;DHT22;33088;51.982;5.872;2022-10-13T01:33:59;10.60;99.90
47350;DHT22;33088;51.982;5.872;2022-10-13T01:39:34;10.60;99.90
47350;DHT22;33088;51.982;5.872;2022-10-13T01:42:17;10.60;99.90
47350;DHT22;33088;51.982;5.872;2022-10-13T01:44:49;10.60;99.90
47350;DHT22;33088;51.982;5.872;2022-10-13T01:47:15;10.60;99.90
47350;DHT22;33088;51.982;5.872;2022-10-13T01:49:43;10.60;99.90
47350;DHT22;33088;51.982;5.872;2022-10-13T01:52:14;10.60;99.90
47350;DHT22;33088;51.982;5.872;2022-10-13T01:54:41;10.60;99.90
47350;DHT22;33088;51.982;5.872;2022-10-13T01:57:59;10.60;99.90
47350;DHT22;33088;51.982;5.872;2022-10-13T02:00:19;10.60;99.90
47350;DHT22;33088;51.982;5.872;2022-10-13T02:03:05;10.70;99.90
47350;DHT22;33088;51.982;5.872;2022-10-13T02:08:43;10.70;99.90
47350;DHT22;33088;51.982;5.872;2022-10-13T02:11:17;10.70;99.90
47350;DHT22;33088;51.982;5.872;2022-10-13T02:14:25;10.70;99.90
47350;DHT22;33088;51.982;5.872;2022-10-13T02:16:53;10.80;99.90
47350;DHT22;33088;51.982;5.872;2022-10-13T02:19:20;10.80;99.90
47350;DHT22;33088;51.982;5.872;2022-10-13T02:21:47;10.80;99.90
47350;DHT22;33088;51.982;5.872;2022-10-13T02:24:12;10.90;99.90
47350;DHT22;33088;51.982;5.872;2022-10-13T02:26:38;10.80;99.90
47350;DHT22;33088;51.982;5.872;2022-10-13T02:29:14;10.80;99.90
47350;DHT22;33088;51.982;5.872;2022-10-13T02:31:40;10.80;99.90
47350;DHT22;33088;51.982;5.872;2022-10-13T02:34:07;10.90;99.90
47350;DHT22;33088;51.982;5.872;2022-10-13T02:36:33;10.90;99.90
47350;DHT22;33088;51.982;5.872;2022-10-13T02:38:59;10.90;99.90
47350;DHT22;33088;51.982;5.872;2022-10-13T02:41:25;10.80;99.90
47350;DHT22;33088;51.982;5.872;2022-10-13T02:43:50;11.00;99.90
47350;DHT22;33088;51.982;5.872;2022-10-13T02:46:16;11.00;99.90
47350;DHT22;33088;51.982;5.872;2022-10-13T02:48:43;10.90;99.90
47350;DHT22;33088;51.982;5.872;2022-10-13T02:51:08;10.90;99.90
47350;DHT22;33088;51.982;5.872;2022-10-13T02:53:34;10.90;99.90
47350;DHT22;33088;51.982;5.872;2022-10-13T02:55:59;10.90;99.90
47350;DHT22;33088;51.982;5.872;2022-10-13T02:58:26;10.80;99.90
47350;DHT22;33088;51.982;5.872;2022-10-13T03:00:52;10.80;99.90
47350;DHT22;33088;51.982;5.872;2022-10-13T03:03:17;10.90;99.90
47350;DHT22;33088;51.982;5.872;2022-10-13T03:05:44;10.90;99.90
47350;DHT22;33088;51.982;5.872;2022-10-13T03:08:10;10.90;99.90
47350;DHT22;33088;51.982;5.872;2022-10-13T03:10:36;11.00;99.90
47350;DHT22;33088;51.982;5.872;2022-10-13T03:13:02;11.10;99.90
47350;DHT22;33088;51.982;5.872;2022-10-13T03:15:27;11.20;99.90
47350;DHT22;33088;51.982;5.872;2022-10-13T03:17:56;11.00;99.90
47350;DHT22;33088;51.982;5.872;2022-10-13T03:20:22;11.10;99.90
47350;DHT22;33088;51.982;5.872;2022-10-13T03:22:47;11.10;99.90
47350;DHT22;33088;51.982;5.872;2022-10-13T03:25:13;11.10;99.90
47350;DHT22;33088;51.982;5.872;2022-10-13T03:27:40;11.10;99.90
47350;DHT22;33088;51.982;5.872;2022-10-13T03:30:06;11.10;99.90
47350;DHT22;33088;51.982;5.872;2022-10-13T03:32:33;11.10;99.90
47350;DHT22;33088;51.982;5.872;2022-10-13T03:34:58;11.10;99.90
47350;DHT22;33088;51.982;5.872;2022-10-13T03:37:24;11.20;99.90
47350;DHT22;33088;51.982;5.872;2022-10-13T03:39:50;11.20;99.90
47350;DHT22;33088;51.982;5.872;2022-10-13T03:42:16;11.20;99.90
47350;DHT22;33088;51.982;5.872;2022-10-13T03:44:43;11.10;99.90
47350;DHT22;33088;51.982;5.872;2022-10-13T03:47:08;11.00;99.90
47350;DHT22;33088;51.982;5.872;2022-10-13T03:49:34;11.10;99.90
47350;DHT22;33088;51.982;5.872;2022-10-13T03:52:01;11.10;99.90
47350;DHT22;33088;51.982;5.872;2022-10-13T03:54:27;11.10;99.90
47350;DHT22;33088;51.982;5.872;2022-10-13T03:56:52;11.10;99.90
47350;DHT22;33088;51.982;5.872;2022-10-13T03:59:18;11.10;99.90
47350;DHT22;33088;51.982;5.872;2022-10-13T04:01:44;11.10;99.90
47350;DHT22;33088;51.982;5.872;2022-10-13T04:04:10;11.10;99.90
47350;DHT22;33088;51.982;5.872;2022-10-13T04:06:40;11.10;99.90
47350;DHT22;33088;51.982;5.872;2022-10-13T04:09:06;11.10;99.90
47350;DHT22;33088;51.982;5.872;2022-10-13T04:11:32;11.10;99.90
47350;DHT22;33088;51.982;5.872;2022-10-13T04:13:58;11.20;99.90
47350;DHT22;33088;51.982;5.872;2022-10-13T04:16:26;11.20;99.90
47350;DHT22;33088;51.982;5.872;2022-10-13T04:18:58;11.30;99.90
47350;DHT22;33088;51.982;5.872;2022-10-13T04:21:25;11.30;99.90
47350;DHT22;33088;51.982;5.872;2022-10-13T04:23:53;11.30;99.90
47350;DHT22;33088;51.982;5.872;2022-10-13T04:26:21;11.30;99.90
47350;DHT22;33088;51.982;5.872;2022-10-13T04:28:48;11.30;99.90
47350;DHT22;33088;51.982;5.872;2022-10-13T04:31:14;11.30;99.90
47350;DHT22;33088;51.982;5.872;2022-10-13T04:33:40;11.30;99.90
47350;DHT22;33088;51.982;5.872;2022-10-13T04:36:08;11.30;99.90
47350;DHT22;33088;51.982;5.872;2022-10-13T04:38:33;11.20;99.90
47350;DHT22;33088;51.982;5.872;2022-10-13T04:41:03;11.30;99.90
47350;DHT22;33088;51.982;5.872;2022-10-13T04:43:30;11.30;99.90
47350;DHT22;33088;51.982;5.872;2022-10-13T04:46:18;11.20;99.90
47350;DHT22;33088;51.982;5.872;2022-10-13T04:48:45;11.20;99.90
47350;DHT22;33088;51.982;5.872;2022-10-13T04:51:14;11.20;99.90
47350;DHT22;33088;51.982;5.872;2022-10-13T04:53:41;11.20;99.90
47350;DHT22;33088;51.982;5.872;2022-10-13T04:56:16;11.20;99.90
47350;DHT22;33088;51.982;5.872;2022-10-13T04:58:43;11.10;99.90
47350;DHT22;33088;51.982;5.872;2022-10-13T05:01:15;11.20;99.90
47350;DHT22;33088;51.982;5.872;2022-10-13T05:03:42;11.10;99.90
47350;DHT22;33088;51.982;5.872;2022-10-13T05:06:15;11.20;99.90
47350;DHT22;33088;51.982;5.872;2022-10-13T05:08:43;11.20;99.90
47350;DHT22;33088;51.982;5.872;2022-10-13T05:11:12;11.20;99.90
47350;DHT22;33088;51.982;5.872;2022-10-13T05:13:39;11.20;99.90
47350;DHT22;33088;51.982;5.872;2022-10-13T05:16:12;11.20;99.90
47350;DHT22;33088;51.982;5.872;2022-10-13T05:18:39;11.20;99.90
47350;DHT22;33088;51.982;5.872;2022-10-13T05:21:09;11.10;99.90
47350;DHT22;33088;51.982;5.872;2022-10-13T05:23:36;11.10;99.90
47350;DHT22;33088;51.982;5.872;2022-10-13T05:26:03;11.10;99.90
47350;DHT22;33088;51.982;5.872;2022-10-13T05:28:29;11.10;99.90
47350;DHT22;33088;51.982;5.872;2022-10-13T05:30:55;11.10;99.90
47350;DHT22;33088;51.982;5.872;2022-10-13T05:33:20;11.30;99.90
47350;DHT22;33088;51.982;5.872;2022-10-13T05:35:46;11.30;99.90
47350;DHT22;33088;51.982;5.872;2022-10-13T05:38:11;11.40;99.90
47350;DHT22;33088;51.982;5.872;2022-10-13T05:40:37;11.30;99.90
47350;DHT22;33088;51.982;5.872;2022-10-13T05:43:04;11.40;99.90
47350;DHT22;33088;51.982;5.872;2022-10-13T05:45:31;11.40;99.90
47350;DHT22;33088;51.982;5.872;2022-10-13T05:47:57;11.30;99.90
47350;DHT22;33088;51.982;5.872;2022-10-13T05:50:23;11.40;99.90
47350;DHT22;33088;51.982;5.872;2022-10-13T05:52:49;11.40;99.90
47350;DHT22;33088;51.982;5.872;2022-10-13T05:55:16;11.50;99.90
47350;DHT22;33088;51.982;5.872;2022-10-13T05:57:46;11.50;99.90
47350;DHT22;33088;51.982;5.872;2022-10-13T06:00:15;11.40;99.90
47350;DHT22;33088;51.982;5.872;2022-10-13T06:02:55;11.50;99.90
47350;DHT22;33088;51.982;5.872;2022-10-13T06:05:25;11.50;99.90
47350;DHT22;33088;51.982;5.872;2022-10-13T06:07:54;11.50;99.90
47350;DHT22;33088;51.982;5.872;2022-10-13T06:10:20;11.40;99.90
47350;DHT22;33088;51.982;5.872;2022-10-13T06:12:47;11.40;99.90
47350;DHT22;33088;51.982;5.872;2022-10-13T06:15:12;11.50;99.90
47350;DHT22;33088;51.982;5.872;2022-10-13T06:17:38;11.40;99.90
47350;DHT22;33088;51.982;5.872;2022-10-13T06:20:05;11.50;99.90
47350;DHT22;33088;51.982;5.872;2022-10-13T06:22:32;11.50;99.90
47350;DHT22;33088;51.982;5.872;2022-10-13T06:24:58;11.50;99.90
47350;DHT22;33088;51.982;5.872;2022-10-13T06:27:24;11.50;99.90
47350;DHT22;33088;51.982;5.872;2022-10-13T06:29:52;11.50;99.90
47350;DHT22;33088;51.982;5.872;2022-10-13T06:32:17;11.50;99.90
47350;DHT22;33088;51.982;5.872;2022-10-13T06:34:43;11.50;99.90
47350;DHT22;33088;51.982;5.872;2022-10-13T06:37:09;11.60;99.90
47350;DHT22;33088;51.982;5.872;2022-10-13T06:39:34;11.60;99.90
47350;DHT22;33088;51.982;5.872;2022-10-13T06:42:02;11.60;99.90
47350;DHT22;33088;51.982;5.872;2022-10-13T06:44:30;11.70;99.90
47350;DHT22;33088;51.982;5.872;2022-10-13T06:47:00;11.70;99.90
47350;DHT22;33088;51.982;5.872;2022-10-13T06:49:27;11.70;99.90
47350;DHT22;33088;51.982;5.872;2022-10-13T06:51:53;11.80;99.90
47350;DHT22;33088;51.982;5.872;2022-10-13T06:54:19;11.90;99.90
47350;DHT22;33088;51.982;5.872;2022-10-13T06:56:44;11.90;99.90
47350;DHT22;33088;51.982;5.872;2022-10-13T06:59:10;11.90;99.90
47350;DHT22;33088;51.982;5.872;2022-10-13T07:01:36;11.90;99.90
47350;DHT22;33088;51.982;5.872;2022-10-13T07:04:07;11.90;99.90
47350;DHT22;33088;51.982;5.872;2022-10-13T07:06:33;11.90;99.90
47350;DHT22;33088;51.982;5.872;2022-10-13T07:09:02;11.90;99.90
47350;DHT22;33088;51.982;5.872;2022-10-13T07:11:28;11.90;99.90
47350;DHT22;33088;51.982;5.872;2022-10-13T07:13:55;12.00;99.90
47350;DHT22;33088;51.982;5.872;2022-10-13T07:16:21;12.00;99.90
47350;DHT22;33088;51.982;5.872;2022-10-13T07:18:47;12.10;99.90
47350;DHT22;33088;51.982;5.872;2022-10-13T07:21:13;12.00;99.90
47350;DHT22;33088;51.982;5.872;2022-10-13T07:23:39;12.00;99.90
47350;DHT22;33088;51.982;5.872;2022-10-13T07:26:10;12.10;99.90
47350;DHT22;33088;51.982;5.872;2022-10-13T07:28:36;12.10;99.90
47350;DHT22;33088;51.982;5.872;2022-10-13T07:31:10;12.00;99.90
47350;DHT22;33088;51.982;5.872;2022-10-13T07:33:38;12.00;99.90
47350;DHT22;33088;51.982;5.872;2022-10-13T07:36:04;12.10;99.90
47350;DHT22;33088;51.982;5.872;2022-10-13T07:38:30;12.10;99.90
47350;DHT22;33088;51.982;5.872;2022-10-13T07:40:59;12.20;99.90
47350;DHT22;33088;51.982;5.872;2022-10-13T07:43:26;11.90;99.90
47350;DHT22;33088;51.982;5.872;2022-10-13T07:45:52;12.10;99.90
47350;DHT22;33088;51.982;5.872;2022-10-13T07:48:19;12.10;99.90
47350;DHT22;33088;51.982;5.872;2022-10-13T07:50:45;12.10;99.90
47350;DHT22;33088;51.982;5.872;2022-10-13T07:53:10;12.10;99.90
47350;DHT22;33088;51.982;5.872;2022-10-13T07:55:36;12.20;99.90
47350;DHT22;33088;51.982;5.872;2022-10-13T07:58:02;12.20;99.90
47350;DHT22;33088;51.982;5.872;2022-10-13T08:00:31;12.20;99.90
47350;DHT22;33088;51.982;5.872;2022-10-13T08:02:57;12.10;99.90
47350;DHT22;33088;51.982;5.872;2022-10-13T08:05:23;12.40;99.90
47350;DHT22;33088;51.982;5.872;2022-10-13T08:07:48;12.30;99.90
47350;DHT22;33088;51.982;5.872;2022-10-13T08:10:14;12.20;99.90
47350;DHT22;33088;51.982;5.872;2022-10-13T08:12:40;12.30;99.90
47350;DHT22;33088;51.982;5.872;2022-10-13T08:15:08;12.40;99.90
47350;DHT22;33088;51.982;5.872;2022-10-13T08:17:33;12.50;99.90
47350;DHT22;33088;51.982;5.872;2022-10-13T08:19:59;12.60;99.90
47350;DHT22;33088;51.982;5.872;2022-10-13T08:22:26;12.60;99.90
47350;DHT22;33088;51.982;5.872;2022-10-13T08:24:52;12.80;99.90
47350;DHT22;33088;51.982;5.872;2022-10-13T08:27:21;12.70;99.90
47350;DHT22;33088;51.982;5.872;2022-10-13T08:29:47;12.80;99.90
47350;DHT22;33088;51.982;5.872;2022-10-13T08:32:12;12.90;99.90
47350;DHT22;33088;51.982;5.872;2022-10-13T08:34:38;12.90;99.90
47350;DHT22;33088;51.982;5.872;2022-10-13T08:37:04;13.00;99.90
47350;DHT22;33088;51.982;5.872;2022-10-13T08:39:30;13.00;99.90
47350;DHT22;33088;51.982;5.872;2022-10-13T08:41:56;13.20;99.90
47350;DHT22;33088;51.982;5.872;2022-10-13T08:44:35;13.20;99.90
47350;DHT22;33088;51.982;5.872;2022-10-13T08:49:44;13.10;99.90
47350;DHT22;33088;51.982;5.872;2022-10-13T08:52:19;13.00;99.90
47350;DHT22;33088;51.982;5.872;2022-10-13T08:54:47;13.00;99.90
47350;DHT22;33088;51.982;5.872;2022-10-13T08:57:13;13.10;99.90
47350;DHT22;33088;51.982;5.872;2022-10-13T08:59:39;13.00;99.90
47350;DHT22;33088;51.982;5.872;2022-10-13T09:02:14;13.00;99.90
47350;DHT22;33088;51.982;5.872;2022-10-13T09:04:47;13.10;99.90
47350;DHT22;33088;51.982;5.872;2022-10-13T09:07:28;13.10;99.90
47350;DHT22;33088;51.982;5.872;2022-10-13T09:09:55;13.20;99.90
47350;DHT22;33088;51.982;5.872;2022-10-13T09:12:24;13.20;99.90
47350;DHT22;33088;51.982;5.872;2022-10-13T09:17:24;13.50;99.90
47350;DHT22;33088;51.982;5.872;2022-10-13T09:22:33;14.00;99.90
47350;DHT22;33088;51.982;5.872;2022-10-13T09:28:01;14.20;99.90
47350;DHT22;33088;51.982;5.872;2022-10-13T09:30:42;14.40;99.90
47350;DHT22;33088;51.982;5.872;2022-10-13T09:38:22;14.30;99.90
47350;DHT22;33088;51.982;5.872;2022-10-13T09:44:18;14.50;99.90
47350;DHT22;33088;51.982;5.872;2022-10-13T09:46:35;14.60;99.90
47350;DHT22;33088;51.982;5.872;2022-10-13T09:49:27;14.70;99.90
47350;DHT22;33088;51.982;5.872;2022-10-13T09:52:00;14.80;99.90
47350;DHT22;33088;51.982;5.872;2022-10-13T09:54:27;14.80;99.90
47350;DHT22;33088;51.982;5.872;2022-10-13T09:59:40;14.80;99.90
47350;DHT22;33088;51.982;5.872;2022-10-13T10:02:50;14.80;99.90
47350;DHT22;33088;51.982;5.872;2022-10-13T10:05:01;14.80;99.90
47350;DHT22;33088;51.982;5.872;2022-10-13T10:07:31;14.80;99.90
47350;DHT22;33088;51.982;5.872;2022-10-13T10:10:02;15.00;99.90
47350;DHT22;33088;51.982;5.872;2022-10-13T10:12:31;15.10;99.90
47350;DHT22;33088;51.982;5.872;2022-10-13T10:15:00;15.00;99.90
47350;DHT22;33088;51.982;5.872;2022-10-13T10:17:40;15.20;99.90
47350;DHT22;33088;51.982;5.872;2022-10-13T10:25:39;15.10;99.90
47350;DHT22;33088;51.982;5.872;2022-10-13T10:30:50;15.00;99.90
47350;DHT22;33088;51.982;5.872;2022-10-13T10:33:35;15.00;99.90
47350;DHT22;33088;51.982;5.872;2022-10-13T10:36:15;15.00;99.90
47350;DHT22;33088;51.982;5.872;2022-10-13T10:38:53;15.00;99.90
47350;DHT22;33088;51.982;5.872;2022-10-13T10:41:37;15.00;99.90
47350;DHT22;33088;51.982;5.872;2022-10-13T10:44:11;15.00;99.90
47350;DHT22;33088;51.982;5.872;2022-10-13T10:46:45;15.00;99.90
47350;DHT22;33088;51.982;5.872;2022-10-13T10:49:32;14.80;99.90
47350;DHT22;33088;51.982;5.872;2022-10-13T10:52:00;14.90;99.90
47350;DHT22;33088;51.982;5.872;2022-10-13T10:54:40;15.20;99.90
47350;DHT22;33088;51.982;5.872;2022-10-13T10:57:25;15.10;99.90
47350;DHT22;33088;51.982;5.872;2022-10-13T11:00:08;15.30;99.90
47350;DHT22;33088;51.982;5.872;2022-10-13T11:03:17;15.40;99.90
47350;DHT22;33088;51.982;5.872;2022-10-13T11:06:03;15.10;99.90
47350;DHT22;33088;51.982;5.872;2022-10-13T11:08:47;15.10;99.90
47350;DHT22;33088;51.982;5.872;2022-10-13T11:13:56;14.70;99.90
47350;DHT22;33088;51.982;5.872;2022-10-13T11:17:00;14.50;99.90
47350;DHT22;33088;51.982;5.872;2022-10-13T11:19:37;14.30;99.90
47350;DHT22;33088;51.982;5.872;2022-10-13T11:38:42;13.60;99.90
47350;DHT22;33088;51.982;5.872;2022-10-13T11:41:23;13.50;99.90
47350;DHT22;33088;51.982;5.872;2022-10-13T11:47:19;13.60;99.90
47350;DHT22;33088;51.982;5.872;2022-10-13T11:55:18;13.50;99.90
47350;DHT22;33088;51.982;5.872;2022-10-13T11:57:46;13.50;99.90
47350;DHT22;33088;51.982;5.872;2022-10-13T12:00:14;13.40;99.90
47350;DHT22;33088;51.982;5.872;2022-10-13T12:02:49;13.50;99.90
47350;DHT22;33088;51.982;5.872;2022-10-13T12:05:24;13.40;99.90
47350;DHT22;33088;51.982;5.872;2022-10-13T12:07:51;13.30;99.90
47350;DHT22;33088;51.982;5.872;2022-10-13T12:12:49;13.20;99.90
47350;DHT22;33088;51.982;5.872;2022-10-13T12:15:37;13.20;99.90
47350;DHT22;33088;51.982;5.872;2022-10-13T12:18:22;13.20;99.90
47350;DHT22;33088;51.982;5.872;2022-10-13T12:20:57;13.30;99.90
47350;DHT22;33088;51.982;5.872;2022-10-13T12:23:24;13.20;99.90
47350;DHT22;33088;51.982;5.872;2022-10-13T12:25:51;13.20;99.90
47350;DHT22;33088;51.982;5.872;2022-10-13T12:28:22;13.30;99.90
47350;DHT22;33088;51.982;5.872;2022-10-13T12:30:58;13.20;99.90
47350;DHT22;33088;51.982;5.872;2022-10-13T12:33:28;13.30;99.90
47350;DHT22;33088;51.982;5.872;2022-10-13T12:35:55;13.20;99.90
47350;DHT22;33088;51.982;5.872;2022-10-13T12:38:21;13.20;99.90
47350;DHT22;33088;51.982;5.872;2022-10-13T12:40:48;13.20;99.90
47350;DHT22;33088;51.982;5.872;2022-10-13T12:43:18;13.30;99.90
47350;DHT22;33088;51.982;5.872;2022-10-13T12:45:47;13.30;99.90
47350;DHT22;33088;51.982;5.872;2022-10-13T12:48:33;13.30;99.90
47350;DHT22;33088;51.982;5.872;2022-10-13T12:51:14;13.30;99.90
47350;DHT22;33088;51.982;5.872;2022-10-13T12:53:42;13.20;99.90
47350;DHT22;33088;51.982;5.872;2022-10-13T12:56:30;13.20;99.90
47350;DHT22;33088;51.982;5.872;2022-10-13T12:58:56;13.20;99.90
47350;DHT22;33088;51.982;5.872;2022-10-13T13:01:41;13.20;99.90
47350;DHT22;33088;51.982;5.872;2022-10-13T13:04:27;13.20;99.90
47350;DHT22;33088;51.982;5.872;2022-10-13T13:07:01;13.30;99.90
47350;DHT22;33088;51.982;5.872;2022-10-13T13:12:18;13.40;99.90
47350;DHT22;33088;51.982;5.872;2022-10-13T13:14:45;13.40;99.90
47350;DHT22;33088;51.982;5.872;2022-10-13T13:19:46;13.40;99.90
47350;DHT22;33088;51.982;5.872;2022-10-13T13:22:12;13.50;99.90
47350;DHT22;33088;51.982;5.872;2022-10-13T13:24:39;13.50;99.90
47350;DHT22;33088;51.982;5.872;2022-10-13T13:27:24;13.50;99.90
47350;DHT22;33088;51.982;5.872;2022-10-13T13:29:50;13.60;99.90
47350;DHT22;33088;51.982;5.872;2022-10-13T13:32:18;13.70;99.90
47350;DHT22;33088;51.982;5.872;2022-10-13T13:34:44;13.60;99.90
47350;DHT22;33088;51.982;5.872;2022-10-13T13:37:39;13.90;99.90
47350;DHT22;33088;51.982;5.872;2022-10-13T13:40:13;13.90;99.90
47350;DHT22;33088;51.982;5.872;2022-10-13T13:42:39;14.00;99.90
47350;DHT22;33088;51.982;5.872;2022-10-13T13:45:04;14.00;99.90
47350;DHT22;33088;51.982;5.872;2022-10-13T13:47:30;14.00;99.90
47350;DHT22;33088;51.982;5.872;2022-10-13T13:49:56;14.10;99.90
47350;DHT22;33088;51.982;5.872;2022-10-13T13:52:23;13.90;99.90
47350;DHT22;33088;51.982;5.872;2022-10-13T13:54:50;14.00;99.90
47350;DHT22;33088;51.982;5.872;2022-10-13T13:57:16;14.00;99.90
47350;DHT22;33088;51.982;5.872;2022-10-13T13:59:42;14.00;99.90
47350;DHT22;33088;51.982;5.872;2022-10-13T14:02:18;14.10;99.90
47350;DHT22;33088;51.982;5.872;2022-10-13T14:04:44;14.00;99.90
47350;DHT22;33088;51.982;5.872;2022-10-13T14:07:09;13.90;99.90
47350;DHT22;33088;51.982;5.872;2022-10-13T14:09:35;14.00;99.90
47350;DHT22;33088;51.982;5.872;2022-10-13T14:12:01;14.00;99.90
47350;DHT22;33088;51.982;5.872;2022-10-13T14:14:29;14.00;99.90
47350;DHT22;33088;51.982;5.872;2022-10-13T14:16:56;13.80;99.90
47350;DHT22;33088;51.982;5.872;2022-10-13T14:19:22;13.80;99.90
47350;DHT22;33088;51.982;5.872;2022-10-13T14:21:48;13.80;99.90
47350;DHT22;33088;51.982;5.872;2022-10-13T14:24:16;13.80;99.90
47350;DHT22;33088;51.982;5.872;2022-10-13T14:26:42;13.70;99.90
47350;DHT22;33088;51.982;5.872;2022-10-13T14:29:08;13.70;99.90
47350;DHT22;33088;51.982;5.872;2022-10-13T14:31:34;13.80;99.90
47350;DHT22;33088;51.982;5.872;2022-10-13T14:34:00;13.80;99.90
47350;DHT22;33088;51.982;5.872;2022-10-13T14:36:26;13.70;99.90
47350;DHT22;33088;51.982;5.872;2022-10-13T14:38:52;13.70;99.90
47350;DHT22;33088;51.982;5.872;2022-10-13T14:41:19;13.70;99.90
47350;DHT22;33088;51.982;5.872;2022-10-13T14:43:51;13.60;99.90
47350;DHT22;33088;51.982;5.872;2022-10-13T14:46:18;13.60;99.90
47350;DHT22;33088;51.982;5.872;2022-10-13T14:48:43;13.70;99.90
47350;DHT22;33088;51.982;5.872;2022-10-13T14:51:11;13.50;99.90
47350;DHT22;33088;51.982;5.872;2022-10-13T14:53:40;13.60;99.90
47350;DHT22;33088;51.982;5.872;2022-10-13T14:56:27;13.50;99.90
47350;DHT22;33088;51.982;5.872;2022-10-13T14:59:01;13.50;99.90
47350;DHT22;33088;51.982;5.872;2022-10-13T15:01:35;13.60;99.90
47350;DHT22;33088;51.982;5.872;2022-10-13T15:04:01;13.50;99.90
47350;DHT22;33088;51.982;5.872;2022-10-13T15:06:27;13.60;99.90
47350;DHT22;33088;51.982;5.872;2022-10-13T15:08:53;13.60;99.90
47350;DHT22;33088;51.982;5.872;2022-10-13T15:11:23;13.60;99.90
47350;DHT22;33088;51.982;5.872;2022-10-13T15:13:49;13.60;99.90
47350;DHT22;33088;51.982;5.872;2022-10-13T15:16:17;13.50;99.90
47350;DHT22;33088;51.982;5.872;2022-10-13T15:18:43;13.70;99.90
47350;DHT22;33088;51.982;5.872;2022-10-13T15:21:09;13.50;99.90
47350;DHT22;33088;51.982;5.872;2022-10-13T15:23:35;13.60;99.90
47350;DHT22;33088;51.982;5.872;2022-10-13T15:26:02;13.60;99.90
47350;DHT22;33088;51.982;5.872;2022-10-13T15:28:34;13.70;99.90
47350;DHT22;33088;51.982;5.872;2022-10-13T15:31:00;13.70;99.90
47350;DHT22;33088;51.982;5.872;2022-10-13T15:33:26;13.70;99.90
47350;DHT22;33088;51.982;5.872;2022-10-13T15:35:52;13.70;99.90
47350;DHT22;33088;51.982;5.872;2022-10-13T15:38:19;13.70;99.90
47350;DHT22;33088;51.982;5.872;2022-10-13T15:40:46;13.60;99.90
47350;DHT22;33088;51.982;5.872;2022-10-13T15:43:12;13.60;99.90
47350;DHT22;33088;51.982;5.872;2022-10-13T15:45:37;13.70;99.90
47350;DHT22;33088;51.982;5.872;2022-10-13T15:48:08;13.60;99.90
47350;DHT22;33088;51.982;5.872;2022-10-13T15:50:37;13.60;99.90
47350;DHT22;33088;51.982;5.872;2022-10-13T15:53:03;13.60;99.90
47350;DHT22;33088;51.982;5.872;2022-10-13T15:55:29;13.60;99.90
47350;DHT22;33088;51.982;5.872;2022-10-13T15:57:55;13.60;99.90
47350;DHT22;33088;51.982;5.872;2022-10-13T16:00:20;13.60;99.90
47350;DHT22;33088;51.982;5.872;2022-10-13T16:02:48;13.60;99.90
47350;DHT22;33088;51.982;5.872;2022-10-13T16:05:15;13.50;99.90
47350;DHT22;33088;51.982;5.872;2022-10-13T16:07:41;13.50;99.90
47350;DHT22;33088;51.982;5.872;2022-10-13T16:10:08;13.40;99.90
47350;DHT22;33088;51.982;5.872;2022-10-13T16:12:34;13.50;99.90
47350;DHT22;33088;51.982;5.872;2022-10-13T16:14:59;13.50;99.90
47350;DHT22;33088;51.982;5.872;2022-10-13T16:17:25;13.60;99.90
47350;DHT22;33088;51.982;5.872;2022-10-13T16:19:51;13.50;99.90
47350;DHT22;33088;51.982;5.872;2022-10-13T16:22:19;13.40;99.90
47350;DHT22;33088;51.982;5.872;2022-10-13T16:24:44;13.40;99.90
47350;DHT22;33088;51.982;5.872;2022-10-13T16:27:10;13.40;99.90
47350;DHT22;33088;51.982;5.872;2022-10-13T16:29:36;13.50;99.90
47350;DHT22;33088;51.982;5.872;2022-10-13T16:32:01;13.50;99.90
47350;DHT22;33088;51.982;5.872;2022-10-13T16:34:27;13.40;99.90
47350;DHT22;33088;51.982;5.872;2022-10-13T16:36:53;13.40;99.90
47350;DHT22;33088;51.982;5.872;2022-10-13T16:39:19;13.40;99.90
47350;DHT22;33088;51.982;5.872;2022-10-13T16:41:44;13.40;99.90
47350;DHT22;33088;51.982;5.872;2022-10-13T16:44:11;13.40;99.90
47350;DHT22;33088;51.982;5.872;2022-10-13T16:46:37;13.40;99.90
47350;DHT22;33088;51.982;5.872;2022-10-13T16:49:03;13.30;99.90
47350;DHT22;33088;51.982;5.872;2022-10-13T16:51:28;13.30;99.90
47350;DHT22;33088;51.982;5.872;2022-10-13T16:53:56;13.30;99.90
47350;DHT22;33088;51.982;5.872;2022-10-13T16:56:24;13.40;99.90
47350;DHT22;33088;51.982;5.872;2022-10-13T16:58:54;13.30;99.90
47350;DHT22;33088;51.982;5.872;2022-10-13T17:01:20;13.30;99.90
47350;DHT22;33088;51.982;5.872;2022-10-13T17:03:47;13.30;99.90
47350;DHT22;33088;51.982;5.872;2022-10-13T17:06:13;13.30;99.90
47350;DHT22;33088;51.982;5.872;2022-10-13T17:08:40;13.40;99.90
47350;DHT22;33088;51.982;5.872;2022-10-13T17:11:07;13.30;99.90
47350;DHT22;33088;51.982;5.872;2022-10-13T17:13:34;13.30;99.90